Time;durP1;ratioP1;P1;durP2;ratioP2;P2;SDS_P1;SDS_P2;PMS_P1;PMS_P2;Temp;Humidity;BMP_temperature;BMP_pressure;BME280_temperature;BME280_humidity;BME280_pressure;Samples;Min_cycle;Max_cycle;Signal;HPM_P1;HPM_P2
2022/07/13 02:25:03;;;;;;;1.23;1.10;;;;;;;;;;6231445;22;20212;-90
2022/07/13 02:27:31;;;;;;;1.40;1.30;;;;;;;;;;6244866;23;20176;-90
2022/07/13 02:29:58;;;;;;;1.33;1.23;;;;;;;;;;6245558;23;20173;-90
2022/07/13 02:32:25;;;;;;;0.95;0.90;;;;;;;;;;6245859;23;20172;-91
2022/07/13 02:34:56;;;;;;;1.20;1.10;;;;;;;;;;6245927;22;20176;-91
2022/07/13 02:37:23;;;;;;;1.27;1.17;;;;;;;;;;6245778;23;20161;-91
2022/07/13 02:39:51;;;;;;;1.42;1.33;;;;;;;;;;6245701;23;20223;-90
2022/07/13 02:42:20;;;;;;;1.13;1.00;;;;;;;;;;6245441;23;20169;-90
2022/07/13 02:44:47;;;;;;;1.35;1.25;;;;;;;;;;6244936;22;20248;-90
2022/07/13 02:47:14;;;;;;;1.30;1.20;;;;;;;;;;6245223;23;20172;-89
2022/07/13 02:49:42;;;;;;;1.20;1.10;;;;;;;;;;6245581;23;20222;-89
2022/07/13 02:52:09;;;;;;;1.13;1.02;;;;;;;;;;6245551;23;20172;-90
2022/07/13 02:54:36;;;;;;;1.10;1.00;;;;;;;;;;6245502;23;20180;-91
2022/07/13 02:57:04;;;;;;;1.70;1.20;;;;;;;;;;6245084;23;20168;-91
2022/07/13 02:59:35;;;;;;;1.02;1.00;;;;;;;;;;6245323;23;20189;-90
2022/07/13 03:02:05;;;;;;;1.35;1.25;;;;;;;;;;6245332;23;20373;-91
2022/07/13 03:04:33;;;;;;;1.15;1.10;;;;;;;;;;6245782;23;20172;-91
2022/07/13 03:07:00;;;;;;;1.30;1.17;;;;;;;;;;6245459;22;20192;-91
2022/07/13 03:09:35;;;;;;;1.10;1.08;;;;;;;;;;6244812;23;20203;-91
2022/07/13 03:12:02;;;;;;;1.00;1.00;;;;;;;;;;6244461;23;20186;-92
2022/07/13 03:14:29;;;;;;;1.48;1.38;;;;;;;;;;6245905;23;20176;-91
2022/07/13 03:16:58;;;;;;;1.27;1.20;;;;;;;;;;6244089;22;20219;-91
2022/07/13 03:19:25;;;;;;;1.33;1.23;;;;;;;;;;6244569;23;20588;-91
2022/07/13 03:21:52;;;;;;;1.40;1.30;;;;;;;;;;6244753;23;20176;-91
2022/07/13 03:24:20;;;;;;;2.35;1.30;;;;;;;;;;6245109;23;20226;-91
2022/07/13 03:26:47;;;;;;;1.20;1.10;;;;;;;;;;6244445;22;20229;-90
2022/07/13 03:29:14;;;;;;;1.30;1.20;;;;;;;;;;6244775;23;20172;-91
2022/07/13 03:31:42;;;;;;;1.27;1.17;;;;;;;;;;6244233;23;20173;-92
2022/07/13 03:34:11;;;;;;;1.10;1.10;;;;;;;;;;6244797;23;20179;-90
2022/07/13 03:36:38;;;;;;;1.23;1.13;;;;;;;;;;6244034;22;20291;-91
2022/07/13 03:39:05;;;;;;;1.10;1.10;;;;;;;;;;6244440;23;20188;-90
2022/07/13 03:41:33;;;;;;;1.27;1.17;;;;;;;;;;6244981;23;20226;-90
2022/07/13 03:44:00;;;;;;;1.30;1.20;;;;;;;;;;6244157;23;20172;-91
2022/07/13 03:46:27;;;;;;;1.35;1.25;;;;;;;;;;6243142;22;20223;-89
2022/07/13 03:48:55;;;;;;;1.20;1.10;;;;;;;;;;6245096;23;20169;-91
2022/07/13 03:51:23;;;;;;;1.20;1.10;;;;;;;;;;6245037;23;20173;-90
2022/07/13 03:53:54;;;;;;;1.27;1.20;;;;;;;;;;6244755;23;20188;-91
2022/07/13 03:56:21;;;;;;;1.10;1.10;;;;;;;;;;6244232;22;20664;-91
2022/07/13 03:58:49;;;;;;;1.13;1.10;;;;;;;;;;6244319;23;20242;-90
2022/07/13 04:01:18;;;;;;;1.35;1.25;;;;;;;;;;6244306;23;20168;-90
2022/07/13 04:03:46;;;;;;;1.17;1.02;;;;;;;;;;6244731;23;20181;-91
2022/07/13 04:06:13;;;;;;;1.08;1.00;;;;;;;;;;6244560;22;20266;-91
2022/07/13 04:08:42;;;;;;;1.20;1.10;;;;;;;;;;6244265;23;20168;-90
2022/07/13 04:11:10;;;;;;;1.33;1.13;;;;;;;;;;6244257;23;20173;-92
2022/07/13 04:13:38;;;;;;;1.20;1.10;;;;;;;;;;6244362;23;20187;-90
2022/07/13 04:16:05;;;;;;;1.30;1.13;;;;;;;;;;6244177;22;20243;-90
2022/07/13 04:18:33;;;;;;;2.45;1.15;;;;;;;;;;6243678;23;20188;-90
2022/07/13 04:21:00;;;;;;;1.65;1.17;;;;;;;;;;6244354;23;20175;-91
2022/07/13 04:23:27;;;;;;;1.00;1.00;;;;;;;;;;6243951;23;20169;-91
2022/07/13 04:25:56;;;;;;;1.20;1.10;;;;;;;;;;6243862;22;20672;-90
2022/07/13 04:28:23;;;;;;;1.33;1.02;;;;;;;;;;6244195;23;20203;-91
2022/07/13 04:30:51;;;;;;;1.20;1.10;;;;;;;;;;6244491;23;20195;-91
2022/07/13 04:33:18;;;;;;;1.30;1.25;;;;;;;;;;6244052;23;20199;-90
2022/07/13 04:35:46;;;;;;;2.22;1.20;;;;;;;;;;6244306;22;20223;-91
2022/07/13 04:38:13;;;;;;;1.55;1.13;;;;;;;;;;6244649;23;20227;-92
2022/07/13 04:40:40;;;;;;;1.10;1.10;;;;;;;;;;6244152;23;20195;-90
2022/07/13 04:43:09;;;;;;;1.27;1.15;;;;;;;;;;6244722;23;20192;-90
2022/07/13 04:45:36;;;;;;;1.20;1.10;;;;;;;;;;6242946;22;20272;-89
2022/07/13 04:48:07;;;;;;;2.03;1.33;;;;;;;;;;6245959;23;20177;-92
2022/07/13 04:50:36;;;;;;;5.55;1.83;;;;;;;;;;6249444;23;20165;-92
2022/07/13 04:53:11;;;;;;;13.60;3.58;;;;;;;;;;6247606;23;20180;-93
2022/07/13 04:55:41;;;;;;;11.60;3.38;;;;;;;;;;6249221;22;20196;-91
2022/07/13 04:58:10;;;;;;;1999.90;620.10;;;;;;;;;;6246921;23;20172;-89
2022/07/13 05:00:37;;;;;;;247.98;66.80;;;;;;;;;;6243961;23;20188;-89
2022/07/13 05:03:05;;;;;;;114.32;35.15;;;;;;;;;;6243066;23;20173;-88
2022/07/13 05:05:32;;;;;;;179.57;51.72;;;;;;;;;;6243461;22;20192;-90
2022/07/13 05:08:00;;;;;;;224.23;60.97;;;;;;;;;;6245613;23;20169;-91
2022/07/13 05:10:27;;;;;;;236.93;65.40;;;;;;;;;;6246217;23;20169;-91
2022/07/13 05:12:54;;;;;;;232.48;64.53;;;;;;;;;;6245954;23;20173;-91
2022/07/13 05:15:23;;;;;;;210.15;64.30;;;;;;;;;;6245811;22;20215;-91
2022/07/13 05:17:51;;;;;;;207.30;58.65;;;;;;;;;;6245085;23;20175;-90
2022/07/13 05:20:18;;;;;;;160.20;50.15;;;;;;;;;;6245825;23;20189;-89
2022/07/13 05:22:45;;;;;;;147.32;45.78;;;;;;;;;;6246111;23;20173;-86
2022/07/13 05:25:13;;;;;;;132.55;42.00;;;;;;;;;;6244947;22;20258;-89
2022/07/13 05:27:40;;;;;;;134.07;41.88;;;;;;;;;;6244627;23;20200;-88
2022/07/13 05:30:10;;;;;;;135.32;40.58;;;;;;;;;;6245710;23;20183;-88
2022/07/13 05:32:39;;;;;;;111.88;36.78;;;;;;;;;;6245291;23;20222;-89
2022/07/13 05:35:07;;;;;;;109.03;35.58;;;;;;;;;;6245973;22;20196;-89
2022/07/13 05:37:39;;;;;;;95.05;32.35;;;;;;;;;;6245814;23;20202;-89
2022/07/13 05:40:07;;;;;;;106.60;32.80;;;;;;;;;;6245765;23;20184;-90
2022/07/13 05:42:34;;;;;;;98.40;30.05;;;;;;;;;;6245700;23;20196;-90
2022/07/13 05:45:02;;;;;;;92.18;28.80;;;;;;;;;;6246684;22;20242;-91
2022/07/13 05:47:29;;;;;;;83.57;28.67;;;;;;;;;;6245535;23;20234;-90
2022/07/13 05:50:00;;;;;;;83.97;27.65;;;;;;;;;;6245801;23;20169;-91
2022/07/13 05:52:28;;;;;;;72.88;26.00;;;;;;;;;;6245689;23;20195;-91
2022/07/13 05:54:55;;;;;;;71.95;24.45;;;;;;;;;;6245880;22;20199;-89
2022/07/13 05:57:23;;;;;;;73.00;23.50;;;;;;;;;;6244269;23;20173;-91
2022/07/13 05:59:53;;;;;;;71.93;23.48;;;;;;;;;;6246312;23;20200;-89
2022/07/13 06:02:20;;;;;;;66.72;22.83;;;;;;;;;;6245922;23;20173;-90
2022/07/13 06:04:48;;;;;;;68.90;23.23;;;;;;;;;;6245676;22;20173;-90
2022/07/13 06:07:18;;;;;;;57.95;20.50;;;;;;;;;;6246131;23;20176;-89
2022/07/13 06:09:45;;;;;;;54.10;19.85;;;;;;;;;;6245809;23;20168;-90
2022/07/13 06:12:20;;;;;;;63.58;20.70;;;;;;;;;;6245353;23;20172;-89
2022/07/13 06:14:48;;;;;;;57.72;20.17;;;;;;;;;;6246453;22;20171;-90
2022/07/13 06:17:16;;;;;;;55.97;19.50;;;;;;;;;;6246017;23;20176;-90
2022/07/13 06:19:43;;;;;;;52.00;18.17;;;;;;;;;;6246115;23;20533;-88
2022/07/13 06:22:11;;;;;;;46.13;17.27;;;;;;;;;;6245575;23;20173;-88
2022/07/13 06:24:41;;;;;;;50.45;18.15;;;;;;;;;;6245738;23;20227;-90
2022/07/13 06:27:09;;;;;;;49.38;17.40;;;;;;;;;;6246691;23;20231;-89
2022/07/13 06:29:38;;;;;;;47.75;17.30;;;;;;;;;;6246553;23;20171;-89
2022/07/13 06:32:06;;;;;;;43.97;16.55;;;;;;;;;;6247364;23;20276;-89
2022/07/13 06:34:34;;;;;;;43.55;16.05;;;;;;;;;;6247669;23;20172;-89
2022/07/13 06:37:04;;;;;;;42.05;16.10;;;;;;;;;;6246549;22;20193;-89
2022/07/13 06:39:32;;;;;;;39.10;15.13;;;;;;;;;;6246538;23;20212;-91
2022/07/13 06:42:09;;;;;;;42.70;15.70;;;;;;;;;;6247590;23;20203;-89
2022/07/13 06:44:36;;;;;;;39.33;15.18;;;;;;;;;;6246641;23;20164;-89
2022/07/13 06:47:03;;;;;;;35.90;14.45;;;;;;;;;;6245663;22;20196;-90
2022/07/13 06:49:31;;;;;;;39.55;14.82;;;;;;;;;;6245948;23;20168;-90
2022/07/13 06:52:01;;;;;;;35.13;13.88;;;;;;;;;;6246656;23;20223;-89
2022/07/13 06:54:33;;;;;;;38.97;14.68;;;;;;;;;;6246131;23;20172;-89
2022/07/13 06:59:52;;;;;;;33.92;13.18;;;;;;;;;;6232941;23;20185;-89
2022/07/13 07:02:23;;;;;;;32.70;12.85;;;;;;;;;;6247657;23;20172;-90
2022/07/13 07:04:53;;;;;;;31.45;12.70;;;;;;;;;;6246736;22;20180;-90
2022/07/13 07:07:20;;;;;;;29.05;12.25;;;;;;;;;;6246504;23;20199;-90
2022/07/13 07:09:47;;;;;;;34.67;13.38;;;;;;;;;;6247693;23;20168;-89
2022/07/13 07:12:16;;;;;;;30.20;12.20;;;;;;;;;;6246097;23;20176;-88
2022/07/13 07:14:44;;;;;;;29.48;11.68;;;;;;;;;;6246413;22;20196;-90
2022/07/13 07:17:12;;;;;;;26.50;11.85;;;;;;;;;;6245949;23;20186;-88
2022/07/13 07:19:39;;;;;;;26.98;11.80;;;;;;;;;;6246039;23;20185;-87
2022/07/13 07:22:07;;;;;;;31.65;11.80;;;;;;;;;;6246448;23;20172;-90
2022/07/13 07:24:35;;;;;;;29.95;11.55;;;;;;;;;;6246083;23;20180;-90
2022/07/13 07:27:05;;;;;;;28.13;11.23;;;;;;;;;;6244767;22;20228;-88
2022/07/13 07:29:36;;;;;;;25.92;10.65;;;;;;;;;;6245727;23;20169;-91
2022/07/13 07:32:03;;;;;;;29.60;11.13;;;;;;;;;;6245808;23;20222;-90
2022/07/13 07:34:31;;;;;;;21.98;10.32;;;;;;;;;;6245311;23;20173;-89
2022/07/13 07:36:58;;;;;;;23.88;10.32;;;;;;;;;;6245407;22;20192;-89
2022/07/13 07:39:25;;;;;;;26.70;11.20;;;;;;;;;;6245077;23;20723;-89
2022/07/13 07:41:53;;;;;;;25.63;10.65;;;;;;;;;;6246293;23;20179;-88
2022/07/13 07:44:20;;;;;;;23.90;10.25;;;;;;;;;;6245427;23;20240;-89
2022/07/13 07:46:55;;;;;;;24.65;10.65;;;;;;;;;;6245705;22;20188;-89
2022/07/13 07:49:22;;;;;;;20.23;9.60;;;;;;;;;;6245225;23;20168;-89
2022/07/13 07:51:51;;;;;;;22.27;10.27;;;;;;;;;;6247087;23;20169;-90
2022/07/13 07:54:21;;;;;;;21.60;9.60;;;;;;;;;;6245695;23;20242;-88
2022/07/13 07:56:52;;;;;;;22.65;8.80;;;;;;;;;;6244975;22;20215;-88
2022/07/13 07:59:19;;;;;;;19.00;9.40;;;;;;;;;;6246116;23;20180;-90
2022/07/13 08:01:47;;;;;;;23.13;9.63;;;;;;;;;;6245892;23;20188;-90
2022/07/13 08:04:16;;;;;;;19.67;8.77;;;;;;;;;;6246229;23;20180;-90
2022/07/13 08:06:43;;;;;;;20.48;9.40;;;;;;;;;;6245178;22;20195;-89
2022/07/13 08:09:12;;;;;;;19.17;9.10;;;;;;;;;;6245879;23;20234;-91
2022/07/13 08:11:39;;;;;;;22.17;9.85;;;;;;;;;;6245823;23;20230;-90
2022/07/13 08:14:11;;;;;;;19.02;9.18;;;;;;;;;;6245943;23;20172;-90
2022/07/13 08:16:38;;;;;;;16.05;8.52;;;;;;;;;;6245320;22;20267;-90
2022/07/13 08:19:09;;;;;;;18.38;8.60;;;;;;;;;;6245397;23;20176;-90
2022/07/13 08:21:37;;;;;;;16.90;7.93;;;;;;;;;;6246026;23;20243;-90
2022/07/13 08:24:05;;;;;;;16.98;8.25;;;;;;;;;;6246456;23;20239;-89
2022/07/13 08:26:33;;;;;;;15.68;8.45;;;;;;;;;;6245590;22;20254;-89
2022/07/13 12:44:29;;;;;;;1.77;0.80;;;;;;;;;;6220650;23;20173;-91
2022/07/13 12:46:59;;;;;;;2.67;1.00;;;;;;;;;;6246450;23;20639;-90
2022/07/13 13:01:24;;;;;;;1.02;0.93;;;;;;;;;;6116149;22;20273;-89
2022/07/13 13:19:49;;;;;;;0.68;0.68;;;;;;;;;;6151796;23;20201;-91
2022/07/13 14:22:37;;;;;;;1.10;0.90;;;;;;;;;;6104559;23;20215;-90
2022/07/13 14:30:51;;;;;;;0.75;0.75;;;;;;;;;;6307097;22;20187;-89
2022/07/13 14:39:12;;;;;;;1.42;0.93;;;;;;;;;;6265693;22;20227;-89
2022/07/13 14:44:36;;;;;;;0.90;0.90;;;;;;;;;;6271866;22;20172;-88
2022/07/13 14:47:05;;;;;;;0.95;0.90;;;;;;;;;;6276310;22;20203;-88
2022/07/13 14:49:44;;;;;;;0.80;0.80;;;;;;;;;;6276563;22;20192;-89
2022/07/13 14:52:24;;;;;;;0.88;0.88;;;;;;;;;;6276060;22;20221;-89
2022/07/13 14:55:13;;;;;;;2.25;0.88;;;;;;;;;;6275911;22;20207;-89
2022/07/13 14:57:44;;;;;;;2.15;1.00;;;;;;;;;;6276363;22;20246;-89
2022/07/13 15:03:31;;;;;;;;;;;;;;;;;;;;;
2022/07/13 15:06:35;;;;;;;2.10;0.88;;;;;;;;;;6276407;22;20164;-89
2022/07/13 15:09:32;;;;;;;0.60;0.60;;;;;;;;;;6276794;22;20192;-89
2022/07/13 15:15:08;;;;;;;0.85;0.80;;;;;;;;;;6270209;22;20247;-90
2022/07/13 15:18:08;;;;;;;1.15;0.80;;;;;;;;;;6277417;22;20172;-90
2022/07/13 15:21:15;;;;;;;1.67;0.90;;;;;;;;;;6276468;22;20188;-90
2022/07/13 15:36:02;;;;;;;1.80;0.85;;;;;;;;;;6153862;23;20187;-90
2022/07/13 15:41:47;;;;;;;1.55;0.90;;;;;;;;;;6273578;22;20200;-90
2022/07/13 15:59:00;;;;;;;1.10;1.00;;;;;;;;;;6271496;22;20202;-92
2022/07/13 16:07:12;;;;;;;3.55;1.55;;;;;;;;;;6273852;22;20205;-91
2022/07/13 16:12:44;;;;;;;22.83;7.85;;;;;;;;;;6275992;22;20179;-89
2022/07/13 16:15:14;;;;;;;73.40;34.85;;;;;;;;;;6274118;22;20191;-90
2022/07/13 16:17:44;;;;;;;78.53;35.58;;;;;;;;;;6274103;22;20176;-91
2022/07/13 16:20:20;;;;;;;60.33;27.42;;;;;;;;;;6273452;22;20191;-90
2022/07/13 16:22:51;;;;;;;47.47;24.70;;;;;;;;;;6274917;22;20255;-90
2022/07/13 16:25:21;;;;;;;38.50;20.52;;;;;;;;;;6274757;22;20168;-89
2022/07/13 16:28:03;;;;;;;33.30;16.48;;;;;;;;;;6274462;22;20159;-90
2022/07/13 16:30:32;;;;;;;25.02;13.93;;;;;;;;;;6274689;22;20202;-90
2022/07/13 16:33:25;;;;;;;23.52;12.15;;;;;;;;;;6274948;22;20176;-89
2022/07/13 16:36:05;;;;;;;20.13;10.43;;;;;;;;;;6266732;22;20191;-90
2022/07/13 16:38:55;;;;;;;14.02;8.02;;;;;;;;;;6276156;22;20192;-91
2022/07/13 16:44:18;;;;;;;9.30;6.13;;;;;;;;;;6272885;22;20226;-91
2022/07/13 16:49:38;;;;;;;6.53;4.40;;;;;;;;;;6272136;22;20203;-91
2022/07/13 16:52:15;;;;;;;6.85;3.80;;;;;;;;;;6274790;22;20198;-91
2022/07/13 16:54:53;;;;;;;4.70;3.28;;;;;;;;;;6274487;22;20231;-90
2022/07/13 17:00:35;;;;;;;4.05;2.97;;;;;;;;;;6271817;22;20231;-91
2022/07/13 17:03:17;;;;;;;2.95;2.50;;;;;;;;;;6276437;22;20171;-89
2022/07/13 17:05:45;;;;;;;5.05;2.90;;;;;;;;;;6276849;22;20217;-91
2022/07/13 17:08:14;;;;;;;3.50;2.25;;;;;;;;;;6276323;22;20192;-91
2022/07/13 17:13:42;;;;;;;2.85;2.33;;;;;;;;;;6276177;22;20172;-91
2022/07/13 17:16:20;;;;;;;2.67;1.85;;;;;;;;;;6275857;22;20164;-91
2022/07/13 17:19:09;;;;;;;2.50;1.98;;;;;;;;;;6276117;22;20191;-91
2022/07/13 17:21:41;;;;;;;3.15;2.00;;;;;;;;;;6276764;22;20192;-92
2022/07/13 17:27:08;;;;;;;2.58;1.70;;;;;;;;;;6272911;22;20172;-91
2022/07/13 17:32:39;;;;;;;2.20;1.42;;;;;;;;;;6273848;22;20172;-91
2022/07/13 17:38:08;;;;;;;2.65;1.77;;;;;;;;;;6269036;22;20204;-91
2022/07/13 17:40:39;;;;;;;2.40;1.60;;;;;;;;;;6276354;22;20174;-91
2022/07/13 17:43:25;;;;;;;2.95;1.58;;;;;;;;;;6276431;22;20215;-90
2022/07/13 17:45:53;;;;;;;2.88;1.60;;;;;;;;;;6276380;22;20164;-91
2022/07/13 17:48:31;;;;;;;2.83;1.70;;;;;;;;;;6276827;22;20199;-90
2022/07/13 17:51:07;;;;;;;1.70;1.45;;;;;;;;;;6280862;22;20174;-88
2022/07/13 17:53:48;;;;;;;2.95;1.45;;;;;;;;;;6278103;22;20174;-91
2022/07/13 17:56:19;;;;;;;4.97;1.80;;;;;;;;;;6277765;22;20194;-91
2022/07/13 17:58:49;;;;;;;4.55;2.08;;;;;;;;;;6277714;22;20227;-90
2022/07/13 18:01:22;;;;;;;3.70;1.90;;;;;;;;;;6277807;22;20188;-91
2022/07/13 18:03:55;;;;;;;5.45;1.95;;;;;;;;;;6277589;22;20172;-91
2022/07/13 18:06:28;;;;;;;4.78;1.83;;;;;;;;;;6277778;22;20170;-92
2022/07/13 18:15:32;;;;;;;6.13;3.45;;;;;;;;;;6270626;22;20179;-92
2022/07/13 18:25:59;;;;;;;4.63;2.95;;;;;;;;;;6277532;22;20175;-90
2022/07/13 18:28:26;;;;;;;5.70;2.85;;;;;;;;;;6276736;22;20191;-90
2022/07/13 18:30:59;;;;;;;5.03;2.80;;;;;;;;;;6276575;22;20172;-89
2022/07/13 18:33:32;;;;;;;7.03;2.67;;;;;;;;;;6277495;22;20246;-90
2022/07/13 18:44:46;;;;;;;9.00;4.05;;;;;;;;;;6155687;23;20245;-90
2022/07/13 18:47:21;;;;;;;8.68;3.30;;;;;;;;;;6153016;23;20166;-90
2022/07/13 18:56:02;;;;;;;8.55;2.90;;;;;;;;;;6215216;23;20140;-89
2022/07/13 21:12:51;;;;;;;4.53;2.22;;;;;;;;;;6337838;22;20198;-91
2022/07/13 21:15:29;;;;;;;3.03;2.08;;;;;;;;;;6340614;22;20188;-92
2022/07/13 21:45:19;;;;;;;27.55;7.22;;;;;;;;;;6344731;22;20142;-90
2022/07/13 21:47:49;;;;;;;29.27;7.20;;;;;;;;;;6341607;22;20167;-91
2022/07/13 21:53:10;;;;;;;19.88;5.43;;;;;;;;;;6338450;22;20171;-91
2022/07/13 21:55:40;;;;;;;25.25;5.93;;;;;;;;;;6365790;22;20190;-90
2022/07/13 21:58:08;;;;;;;19.50;6.00;;;;;;;;;;6366613;22;20149;-92
2022/07/13 22:00:41;;;;;;;18.48;5.93;;;;;;;;;;6366992;22;20178;-91
2022/07/13 22:06:00;;;;;;;17.95;5.68;;;;;;;;;;6365782;22;20159;-94
2022/07/13 22:08:29;;;;;;;14.02;5.55;;;;;;;;;;6367376;22;20158;-94
2022/07/13 22:11:15;;;;;;;15.50;5.53;;;;;;;;;;6367414;22;20159;-93
2022/07/13 22:14:01;;;;;;;15.88;5.28;;;;;;;;;;6343403;22;20186;-91
2022/07/13 22:16:49;;;;;;;17.92;5.95;;;;;;;;;;6340576;22;20170;-90
2022/07/13 22:19:35;;;;;;;16.58;5.53;;;;;;;;;;6343659;22;20193;-92
2022/07/13 22:22:23;;;;;;;12.48;5.25;;;;;;;;;;6336953;22;20190;-91
2022/07/13 22:25:09;;;;;;;13.27;4.95;;;;;;;;;;6336887;22;20178;-91
2022/07/13 22:27:55;;;;;;;14.55;5.03;;;;;;;;;;6337983;22;20166;-91
2022/07/13 22:30:41;;;;;;;12.38;4.57;;;;;;;;;;6337215;22;20244;-91
2022/07/13 22:33:27;;;;;;;12.75;4.82;;;;;;;;;;6338198;22;20167;-91
2022/07/13 22:36:14;;;;;;;11.75;4.65;;;;;;;;;;6338065;22;20236;-91
2022/07/13 22:39:07;;;;;;;12.93;5.03;;;;;;;;;;6338101;22;20190;-90
2022/07/13 22:41:53;;;;;;;14.65;5.15;;;;;;;;;;6337929;22;20166;-91
2022/07/13 22:44:39;;;;;;;13.90;4.68;;;;;;;;;;6338122;22;20175;-92
2022/07/13 22:47:25;;;;;;;15.77;4.90;;;;;;;;;;6337850;22;20223;-91
2022/07/13 22:50:11;;;;;;;11.98;4.75;;;;;;;;;;6338046;22;20244;-91
2022/07/13 22:52:57;;;;;;;10.98;4.38;;;;;;;;;;6338310;22;20173;-91
2022/07/13 22:55:43;;;;;;;9.85;4.53;;;;;;;;;;6337729;22;20167;-91
2022/07/13 22:58:29;;;;;;;10.57;4.65;;;;;;;;;;6338323;22;20166;-91
2022/07/13 23:01:15;;;;;;;10.23;4.32;;;;;;;;;;6337175;22;20239;-90
2022/07/13 23:04:08;;;;;;;9.77;4.10;;;;;;;;;;6338622;22;20263;-92
2022/07/13 23:06:54;;;;;;;10.65;4.38;;;;;;;;;;6338276;22;20166;-91
2022/07/13 23:09:41;;;;;;;9.60;3.72;;;;;;;;;;6337403;22;20194;-90
2022/07/13 23:12:27;;;;;;;7.65;4.20;;;;;;;;;;6338318;22;20166;-92
2022/07/13 23:15:13;;;;;;;7.57;3.75;;;;;;;;;;6337732;22;20171;-92
2022/07/13 23:17:59;;;;;;;8.10;3.83;;;;;;;;;;6338033;22;20178;-89
2022/07/13 23:20:45;;;;;;;10.18;3.83;;;;;;;;;;6337804;22;20191;-92
2022/07/13 23:23:31;;;;;;;11.40;4.18;;;;;;;;;;6337855;22;20186;-91
2022/07/13 23:26:17;;;;;;;7.93;4.13;;;;;;;;;;6338424;22;20172;-91
2022/07/13 23:28:47;;;;;;;8.23;3.72;;;;;;;;;;6337831;22;20186;-91
2022/07/13 23:31:23;;;;;;;8.07;3.63;;;;;;;;;;6337658;22;20173;-91
2022/07/13 23:33:51;;;;;;;5.30;3.63;;;;;;;;;;6337578;22;20154;-92
2022/07/13 23:36:18;;;;;;;8.30;3.80;;;;;;;;;;6337309;22;20166;-91
2022/07/13 23:38:46;;;;;;;5.78;3.45;;;;;;;;;;6337907;22;20190;-91
2022/07/13 23:41:16;;;;;;;7.63;3.58;;;;;;;;;;6337573;22;20170;-92
2022/07/13 23:43:43;;;;;;;4.85;3.33;;;;;;;;;;6338098;22;20187;-91
2022/07/13 23:46:14;;;;;;;6.60;3.88;;;;;;;;;;6337305;22;20174;-91
2022/07/13 23:48:43;;;;;;;4.07;3.33;;;;;;;;;;6337654;22;20201;-92
2022/07/13 23:51:10;;;;;;;5.47;3.00;;;;;;;;;;6337656;22;20231;-91
2022/07/13 23:53:38;;;;;;;5.75;3.60;;;;;;;;;;6337348;22;20163;-91
2022/07/13 23:56:05;;;;;;;5.13;3.30;;;;;;;;;;6337531;22;20175;-91
2022/07/13 23:58:34;;;;;;;5.15;3.20;;;;;;;;;;6336911;22;20178;-91
